createdAt,value
2022-08-26T00:01:55.891Z,22.99
2022-08-26T00:04:25.113Z,22.97
2022-08-26T00:06:52.623Z,22.97
2022-08-26T00:09:19.140Z,22.82
2022-08-26T00:11:45.903Z,22.96
2022-08-26T00:14:13.777Z,22.89
2022-08-26T00:16:47.586Z,22.88
2022-08-26T00:19:18.991Z,23.03
2022-08-26T00:21:48.625Z,23.00
2022-08-26T00:24:20.854Z,23.02
2022-08-26T00:26:48.236Z,23.02
2022-08-26T00:29:15.170Z,23.00
2022-08-26T00:31:42.415Z,22.95
2022-08-26T00:34:11.164Z,23.02
2022-08-26T00:36:39.446Z,22.99
2022-08-26T00:39:07.542Z,22.95
2022-08-26T00:41:35.862Z,22.99
2022-08-26T00:44:02.438Z,22.94
2022-08-26T00:46:33.589Z,23.02
2022-08-26T00:49:12.084Z,23.03
2022-08-26T00:51:45.641Z,23.05
2022-08-26T00:54:12.949Z,23.00
2022-08-26T00:56:48.590Z,23.03
2022-08-26T00:59:17.702Z,23.03
2022-08-26T01:01:45.938Z,22.94
2022-08-26T01:04:17.262Z,22.99
2022-08-26T01:06:44.924Z,23.01
2022-08-26T01:09:11.943Z,23.03
2022-08-26T01:11:38.869Z,23.02
2022-08-26T01:14:07.952Z,23.05
2022-08-26T01:16:36.469Z,23.07
2022-08-26T01:19:15.775Z,23.06
2022-08-26T01:21:58.366Z,23.12
2022-08-26T01:24:28.852Z,23.10
2022-08-26T01:27:02.511Z,22.97
2022-08-26T01:29:31.100Z,23.08
2022-08-26T01:31:58.770Z,22.97
2022-08-26T01:34:35.087Z,23.03
2022-08-26T01:37:06.941Z,23.04
2022-08-26T01:39:36.351Z,23.00
2022-08-26T01:42:05.566Z,22.99
2022-08-26T01:44:44.863Z,22.91
2022-08-26T01:47:14.929Z,22.92
2022-08-26T01:49:42.153Z,23.06
2022-08-26T01:52:12.139Z,22.89
2022-08-26T01:54:39.934Z,22.75
2022-08-26T01:57:07.938Z,22.66
2022-08-26T01:59:34.948Z,22.75
2022-08-26T02:02:02.014Z,22.72
2022-08-26T02:04:34.842Z,22.65
2022-08-26T02:07:08.135Z,22.68
2022-08-26T02:09:41.370Z,22.65
2022-08-26T02:12:10.657Z,22.18
2022-08-26T02:14:43.776Z,22.59
2022-08-26T02:17:11.364Z,22.57
2022-08-26T02:19:42.018Z,22.55
2022-08-26T02:22:13.951Z,22.53
2022-08-26T02:24:49.500Z,22.52
2022-08-26T02:27:32.482Z,22.51
2022-08-26T02:30:18.964Z,22.50
2022-08-26T02:32:46.329Z,22.45
2022-08-26T02:35:20.351Z,22.45
2022-08-26T02:37:48.055Z,22.45
2022-08-26T02:40:21.471Z,22.45
2022-08-26T02:42:48.468Z,22.45
2022-08-26T02:45:14.892Z,22.44
2022-08-26T02:47:50.516Z,22.48
2022-08-26T02:50:17.116Z,22.48
2022-08-26T02:52:44.136Z,22.50
2022-08-26T02:55:10.783Z,22.50
2022-08-26T02:57:37.442Z,22.46
2022-08-26T03:00:08.528Z,22.51
2022-08-26T03:02:35.208Z,22.49
2022-08-26T03:05:02.206Z,22.49
2022-08-26T03:07:29.712Z,22.48
2022-08-26T03:09:57.096Z,22.45
2022-08-26T03:12:23.986Z,22.40
2022-08-26T03:14:52.308Z,22.39
2022-08-26T03:17:18.833Z,22.37
2022-08-26T03:19:45.411Z,22.32
2022-08-26T03:22:12.109Z,22.30
2022-08-26T03:24:41.255Z,22.07
2022-08-26T03:27:12.403Z,22.18
2022-08-26T03:29:57.393Z,22.18
2022-08-26T03:32:23.900Z,22.09
2022-08-26T03:34:53.429Z,22.10
2022-08-26T03:37:20.833Z,22.07
2022-08-26T03:39:54.026Z,22.01
2022-08-26T03:42:22.046Z,21.96
2022-08-26T03:44:49.298Z,21.98
2022-08-26T03:47:15.840Z,21.94
2022-08-26T03:49:42.382Z,21.90
2022-08-26T03:52:08.844Z,21.87
2022-08-26T03:54:35.714Z,21.86
2022-08-26T03:57:02.252Z,21.84
2022-08-26T03:59:29.593Z,21.65
2022-08-26T04:01:56.124Z,21.76
2022-08-26T04:04:24.398Z,21.74
2022-08-26T04:06:58.267Z,21.72
2022-08-26T04:09:26.526Z,21.68
2022-08-26T04:11:54.333Z,21.67
2022-08-26T04:14:23.632Z,21.59
2022-08-26T04:16:51.253Z,21.65
2022-08-26T04:19:19.449Z,21.61
2022-08-26T04:21:48.195Z,21.57
2022-08-26T04:24:16.564Z,21.55
2022-08-26T04:26:44.778Z,21.57
2022-08-26T04:29:20.538Z,21.55
2022-08-26T04:31:50.429Z,21.54
2022-08-26T04:34:23.627Z,21.53
2022-08-26T04:36:51.374Z,21.47
2022-08-26T04:39:20.190Z,21.52
2022-08-26T04:41:48.913Z,21.52
2022-08-26T04:44:18.020Z,21.48
2022-08-26T04:46:44.692Z,21.49
2022-08-26T04:49:11.623Z,21.37
2022-08-26T04:51:39.066Z,21.51
2022-08-26T04:54:07.245Z,21.52
2022-08-26T04:56:39.482Z,21.55
2022-08-26T04:59:16.666Z,21.55
2022-08-26T05:01:46.501Z,21.54
2022-08-26T05:04:13.152Z,21.61
2022-08-26T05:06:43.525Z,21.57
2022-08-26T05:09:10.037Z,21.66
2022-08-26T05:11:38.073Z,21.69
2022-08-26T05:14:05.973Z,21.65
2022-08-26T05:16:32.496Z,21.78
2022-08-26T05:18:58.971Z,21.84
2022-08-26T05:21:29.012Z,21.88
2022-08-26T05:23:56.189Z,22.08
2022-08-26T05:26:25.699Z,22.01
2022-08-26T05:28:54.925Z,22.09
2022-08-26T05:31:27.759Z,22.17
2022-08-26T05:33:55.162Z,22.22
2022-08-26T05:36:23.620Z,22.25
2022-08-26T05:38:53.765Z,22.34
2022-08-26T05:41:34.385Z,22.45
2022-08-26T05:44:06.359Z,22.52
2022-08-26T05:46:34.463Z,22.62
2022-08-26T05:49:01.646Z,22.70
2022-08-26T05:51:30.516Z,22.79
2022-08-26T05:53:57.816Z,22.85
2022-08-26T05:56:26.094Z,22.98
2022-08-26T05:58:52.659Z,23.05
2022-08-26T06:01:25.998Z,23.11
2022-08-26T06:03:55.793Z,23.39
2022-08-26T06:06:29.393Z,23.57
2022-08-26T06:08:59.412Z,23.70
2022-08-26T06:11:27.341Z,23.87
2022-08-26T06:14:00.031Z,24.01
2022-08-26T06:16:29.008Z,24.04
2022-08-26T06:18:55.821Z,24.31
2022-08-26T06:21:28.639Z,24.44
2022-08-26T06:24:19.969Z,24.52
2022-08-26T06:26:50.681Z,24.66
2022-08-26T06:29:24.500Z,24.74
2022-08-26T06:31:53.105Z,24.83
2022-08-26T06:34:20.010Z,24.95
2022-08-26T06:36:47.337Z,25.03
2022-08-26T06:39:16.218Z,25.08
2022-08-26T06:41:44.867Z,25.23
2022-08-26T06:44:13.222Z,25.36
2022-08-26T06:46:40.858Z,25.46
2022-08-26T06:49:08.081Z,25.57
2022-08-26T06:51:36.802Z,25.64
2022-08-26T06:54:05.661Z,25.74
2022-08-26T06:56:39.456Z,25.85
2022-08-26T06:59:07.793Z,25.73
2022-08-26T07:01:39.114Z,25.97
2022-08-26T07:04:10.694Z,26.02
2022-08-26T07:06:40.943Z,26.08
2022-08-26T07:09:10.189Z,26.13
2022-08-26T07:11:38.734Z,26.30
2022-08-26T07:14:06.016Z,26.24
2022-08-26T07:16:33.743Z,26.38
2022-08-26T07:19:03.455Z,26.53
2022-08-26T07:21:37.348Z,26.57
2022-08-26T07:24:04.329Z,26.60
2022-08-26T07:26:31.619Z,26.56
2022-08-26T07:28:59.509Z,26.55
2022-08-26T07:31:28.099Z,26.64
2022-08-26T07:33:56.734Z,26.61
2022-08-26T07:36:24.580Z,26.65
2022-08-26T07:38:52.985Z,26.67
2022-08-26T07:41:22.779Z,26.56
2022-08-26T07:43:50.742Z,26.69
2022-08-26T07:46:26.953Z,26.70
2022-08-26T07:48:54.521Z,26.81
2022-08-26T07:51:22.601Z,26.81
2022-08-26T07:53:52.832Z,26.89
2022-08-26T07:56:20.825Z,26.83
2022-08-26T07:58:51.355Z,27.01
2022-08-26T08:01:23.780Z,27.11
2022-08-26T08:03:51.634Z,27.21
2022-08-26T08:06:27.383Z,27.34
2022-08-26T08:08:55.160Z,27.41
2022-08-26T08:11:23.494Z,27.50
2022-08-26T08:13:56.142Z,27.57
2022-08-26T08:16:26.115Z,27.54
2022-08-26T08:18:59.461Z,27.59
2022-08-26T08:21:27.603Z,27.56
2022-08-26T08:23:57.018Z,27.53
2022-08-26T08:26:25.076Z,27.43
2022-08-26T08:28:55.007Z,27.35
2022-08-26T08:31:52.524Z,27.46
2022-08-26T08:34:12.291Z,27.02
2022-08-26T08:36:38.717Z,26.81
2022-08-26T08:39:05.171Z,26.65
2022-08-26T08:41:36.043Z,26.54
2022-08-26T08:44:03.046Z,26.41
2022-08-26T08:46:30.334Z,26.31
2022-08-26T08:48:59.827Z,26.22
2022-08-26T08:51:45.744Z,26.16
2022-08-26T08:54:13.204Z,26.11
2022-08-26T08:56:49.875Z,26.09
2022-08-26T08:59:26.300Z,25.99
2022-08-26T09:02:14.648Z,26.11
2022-08-26T09:04:55.265Z,26.08
2022-08-26T09:07:36.377Z,26.08
2022-08-26T09:10:32.179Z,26.18
2022-08-26T09:13:01.265Z,26.04
2022-08-26T09:15:45.733Z,26.24
2022-08-26T09:18:33.628Z,26.31
2022-08-26T09:21:04.458Z,26.34
2022-08-26T09:23:34.101Z,26.35
2022-08-26T09:26:14.847Z,26.44
2022-08-26T09:28:45.242Z,26.43
2022-08-26T09:31:11.863Z,26.42
2022-08-26T09:33:40.195Z,26.40
2022-08-26T09:36:12.824Z,26.43
2022-08-26T09:38:39.315Z,26.30
2022-08-26T09:41:21.603Z,26.17
2022-08-26T09:44:15.687Z,26.48
2022-08-26T09:47:04.235Z,26.44
2022-08-26T09:49:38.852Z,26.40
2022-08-26T09:52:23.719Z,26.42
2022-08-26T09:55:11.343Z,26.41
2022-08-26T09:57:54.995Z,26.30
2022-08-26T10:00:24.719Z,26.35
2022-08-26T10:02:53.645Z,26.33
2022-08-26T10:05:38.812Z,26.07
2022-08-26T10:08:40.124Z,26.44
2022-08-26T10:11:34.214Z,26.42
2022-08-26T10:14:10.974Z,26.42
2022-08-26T10:16:56.412Z,26.46
2022-08-26T10:19:29.293Z,26.50
2022-08-26T10:22:20.067Z,26.56
2022-08-26T10:24:54.481Z,26.59
2022-08-26T10:28:00.034Z,26.70
2022-08-26T10:30:34.782Z,26.71
2022-08-26T10:33:07.919Z,26.71
2022-08-26T10:35:39.872Z,26.77
2022-08-26T10:38:13.033Z,26.64
2022-08-26T10:41:09.962Z,26.91
2022-08-26T10:43:45.191Z,26.90
2022-08-26T10:46:19.774Z,26.80
2022-08-26T10:49:00.011Z,26.90
2022-08-26T10:51:28.931Z,27.11
2022-08-26T10:54:04.799Z,26.89
2022-08-26T10:56:48.274Z,26.79
2022-08-26T10:59:23.488Z,26.88
2022-08-26T11:01:53.711Z,26.86
2022-08-26T11:04:46.960Z,26.90
2022-08-26T11:07:37.353Z,27.01
2022-08-26T11:10:31.070Z,27.02
2022-08-26T11:13:05.321Z,27.05
2022-08-26T11:15:31.764Z,27.08
2022-08-26T11:18:07.366Z,27.16
2022-08-26T11:20:45.524Z,27.20
2022-08-26T11:23:12.376Z,27.29
2022-08-26T11:25:57.326Z,27.44
2022-08-26T11:28:39.876Z,27.52
2022-08-26T11:31:33.458Z,27.52
2022-08-26T11:34:03.524Z,27.53
2022-08-26T11:36:54.343Z,27.64
2022-08-26T11:39:28.946Z,27.59
2022-08-26T11:42:00.041Z,27.42
2022-08-26T11:44:37.289Z,27.74
2022-08-26T11:47:05.206Z,27.80
2022-08-26T11:49:38.364Z,27.92
2022-08-26T11:52:17.029Z,27.95
2022-08-26T11:55:08.079Z,28.24
2022-08-26T11:57:40.627Z,28.30
2022-08-26T12:00:12.500Z,28.44
2022-08-26T12:02:41.162Z,28.66
2022-08-26T12:05:08.341Z,28.94
2022-08-26T12:07:35.716Z,29.24
2022-08-26T12:10:05.173Z,29.60
2022-08-26T12:12:38.607Z,29.95
2022-08-26T12:15:06.953Z,30.20
2022-08-26T12:17:33.444Z,30.48
2022-08-26T12:19:59.923Z,30.68
2022-08-26T12:22:29.684Z,30.76
2022-08-26T12:24:59.266Z,30.94
2022-08-26T12:27:27.455Z,31.26
2022-08-26T12:30:02.644Z,31.09
2022-08-26T12:32:31.340Z,30.94
2022-08-26T12:35:00.849Z,30.90
2022-08-26T12:37:30.122Z,30.85
2022-08-26T12:40:27.302Z,31.00
2022-08-26T12:42:54.252Z,30.94
2022-08-26T12:45:33.737Z,30.99
2022-08-26T12:48:07.315Z,31.31
2022-08-26T12:50:37.407Z,31.14
2022-08-26T12:53:09.967Z,31.23
2022-08-26T12:55:39.263Z,31.24
2022-08-26T12:58:13.366Z,31.37
2022-08-26T13:00:42.356Z,31.35
2022-08-26T13:03:45.931Z,31.49
2022-08-26T13:06:26.222Z,31.44
2022-08-26T13:09:05.778Z,31.37
2022-08-26T13:11:35.296Z,31.29
2022-08-26T13:14:07.018Z,31.24
2022-08-26T13:16:35.120Z,31.13
2022-08-26T13:19:05.982Z,31.02
2022-08-26T13:22:00.329Z,31.04
2022-08-26T13:24:36.460Z,30.90
2022-08-26T13:27:04.648Z,30.66
2022-08-26T13:29:31.154Z,30.46
2022-08-26T13:31:58.930Z,30.36
2022-08-26T13:34:26.125Z,30.43
2022-08-26T13:36:54.888Z,30.47
2022-08-26T13:39:22.403Z,30.43
2022-08-26T13:41:49.877Z,30.31
2022-08-26T13:44:16.563Z,30.18
2022-08-26T13:46:43.213Z,30.15
2022-08-26T13:49:10.499Z,30.13
2022-08-26T13:51:37.711Z,30.06
2022-08-26T13:54:05.272Z,30.05
2022-08-26T13:56:32.690Z,29.94
2022-08-26T13:59:01.140Z,30.05
2022-08-26T14:01:29.751Z,30.05
2022-08-26T14:03:56.361Z,30.11
2022-08-26T14:06:22.979Z,30.07
2022-08-26T14:08:49.599Z,30.18
2022-08-26T14:11:16.308Z,30.25
2022-08-26T14:13:43.064Z,30.33
2022-08-26T14:16:20.389Z,30.42
2022-08-26T14:18:50.583Z,30.48
2022-08-26T14:21:18.495Z,30.52
2022-08-26T14:23:45.217Z,30.55
2022-08-26T14:26:23.110Z,30.59
2022-08-26T14:28:57.391Z,30.64
2022-08-26T14:31:24.609Z,30.71
2022-08-26T14:33:51.228Z,30.74
2022-08-26T14:36:32.366Z,30.76
2022-08-26T14:39:09.053Z,30.89
2022-08-26T14:41:44.853Z,30.98
2022-08-26T14:44:13.873Z,31.12
2022-08-26T14:46:49.614Z,31.36
2022-08-26T14:49:19.207Z,31.54
2022-08-26T14:51:46.064Z,31.98
2022-08-26T14:54:14.196Z,31.96
2022-08-26T14:56:45.715Z,32.00
2022-08-26T14:59:14.227Z,32.13
2022-08-26T15:01:40.948Z,32.35
2022-08-26T15:04:07.569Z,32.44
2022-08-26T15:06:35.341Z,32.58
2022-08-26T15:09:02.321Z,32.71
2022-08-26T15:11:29.117Z,32.84
2022-08-26T15:13:55.743Z,33.03
2022-08-26T15:16:22.803Z,33.11
2022-08-26T15:18:51.512Z,33.26
2022-08-26T15:21:19.988Z,33.46
2022-08-26T15:23:48.369Z,33.54
2022-08-26T15:26:16.391Z,33.64
2022-08-26T15:28:43.385Z,33.66
2022-08-26T15:31:10.483Z,33.48
2022-08-26T15:33:38.159Z,33.43
2022-08-26T15:36:06.517Z,33.25
2022-08-26T15:38:35.347Z,32.91
2022-08-26T15:41:03.358Z,32.89
2022-08-26T15:43:30.727Z,32.78
2022-08-26T15:45:57.966Z,32.58
2022-08-26T15:48:24.946Z,32.51
2022-08-26T15:51:00.259Z,32.27
2022-08-26T15:53:28.710Z,32.16
2022-08-26T15:55:56.559Z,32.01
2022-08-26T15:58:27.030Z,32.01
2022-08-26T16:00:55.368Z,31.80
2022-08-26T16:03:22.510Z,31.74
2022-08-26T16:05:49.368Z,31.66
2022-08-26T16:08:15.978Z,31.51
2022-08-26T16:10:49.970Z,31.44
2022-08-26T16:13:17.928Z,31.20
2022-08-26T16:15:44.663Z,31.06
2022-08-26T16:18:11.382Z,30.99
2022-08-26T16:21:06.583Z,30.81
2022-08-26T16:23:33.880Z,30.65
2022-08-26T16:26:01.017Z,30.47
2022-08-26T16:28:27.589Z,30.29
2022-08-26T16:30:54.345Z,30.16
2022-08-26T16:33:29.316Z,29.94
2022-08-26T16:35:56.277Z,29.86
2022-08-26T16:38:22.754Z,29.69
2022-08-26T16:40:49.861Z,29.61
2022-08-26T16:43:16.317Z,29.38
2022-08-26T16:45:42.768Z,28.90
2022-08-26T16:48:09.912Z,28.35
2022-08-26T16:50:38.059Z,27.81
2022-08-26T16:53:04.715Z,27.20
2022-08-26T16:55:31.872Z,26.50
2022-08-26T16:57:58.843Z,25.89
2022-08-26T17:00:28.144Z,25.31
2022-08-26T17:02:56.383Z,24.85
2022-08-26T17:05:25.123Z,24.35
2022-08-26T17:07:52.898Z,23.92
2022-08-26T17:10:20.278Z,23.60
2022-08-26T17:12:46.815Z,23.25
2022-08-26T17:15:14.255Z,22.98
2022-08-26T17:17:41.504Z,22.79
2022-08-26T17:20:11.145Z,22.66
2022-08-26T17:22:43.723Z,22.55
2022-08-26T17:25:13.601Z,22.48
2022-08-26T17:27:40.781Z,22.41
2022-08-26T17:30:08.230Z,22.35
2022-08-26T17:32:35.051Z,22.33
2022-08-26T17:35:02.454Z,22.24
2022-08-26T17:37:28.993Z,22.06
2022-08-26T17:39:55.506Z,22.14
2022-08-26T17:42:22.130Z,21.94
2022-08-26T17:44:58.216Z,22.01
2022-08-26T17:47:25.020Z,21.84
2022-08-26T17:49:51.588Z,21.91
2022-08-26T17:52:18.051Z,21.84
2022-08-26T17:54:44.492Z,21.80
2022-08-26T17:57:10.935Z,21.67
2022-08-26T17:59:38.675Z,21.73
2022-08-26T18:02:07.337Z,21.85
2022-08-26T18:04:33.839Z,21.76
2022-08-26T18:07:00.366Z,21.69
2022-08-26T18:09:31.097Z,21.81
2022-08-26T18:11:58.455Z,21.80
2022-08-26T18:14:25.302Z,21.77
2022-08-26T18:16:52.284Z,21.82
2022-08-26T18:19:20.148Z,21.92
2022-08-26T18:21:46.733Z,21.94
2022-08-26T18:24:14.145Z,21.98
2022-08-26T18:26:47.942Z,22.00
2022-08-26T18:29:15.635Z,22.02
2022-08-26T18:31:42.277Z,22.04
2022-08-26T18:34:12.810Z,21.87
2022-08-26T18:36:42.600Z,22.04
2022-08-26T18:39:10.436Z,22.05
2022-08-26T18:41:46.079Z,21.97
2022-08-26T18:44:16.121Z,22.04
2022-08-26T18:46:42.660Z,22.15
2022-08-26T18:49:12.488Z,22.05
2022-08-26T18:51:39.300Z,22.01
2022-08-26T18:54:07.915Z,21.98
2022-08-26T18:56:36.578Z,21.99
2022-08-26T18:59:04.809Z,21.99
2022-08-26T19:01:32.731Z,21.98
2022-08-26T19:04:01.354Z,21.95
2022-08-26T19:06:31.555Z,21.97
2022-08-26T19:08:58.757Z,21.97
2022-08-26T19:11:31.829Z,21.97
2022-08-26T19:14:00.918Z,21.93
2022-08-26T19:16:28.706Z,21.95
2022-08-26T19:18:56.036Z,21.94
2022-08-26T19:21:22.848Z,21.91
2022-08-26T19:23:50.074Z,21.93
2022-08-26T19:26:16.925Z,21.81
2022-08-26T19:28:43.457Z,21.90
2022-08-26T19:31:11.596Z,21.89
2022-08-26T19:33:43.320Z,21.88
2022-08-26T19:36:15.060Z,21.88
2022-08-26T19:38:42.783Z,21.86
2022-08-26T19:41:14.735Z,21.86
2022-08-26T19:43:41.625Z,21.88
2022-08-26T19:46:13.024Z,21.74
2022-08-26T19:48:40.427Z,21.88
2022-08-26T19:51:07.415Z,21.87
2022-08-26T19:53:33.864Z,21.88
2022-08-26T19:56:00.343Z,21.82
2022-08-26T19:58:27.121Z,21.87
2022-08-26T20:00:53.648Z,21.84
2022-08-26T20:03:20.166Z,21.85
2022-08-26T20:05:47.252Z,21.84
2022-08-26T20:08:16.783Z,21.83
2022-08-26T20:10:49.766Z,21.83
2022-08-26T20:13:16.497Z,21.82
2022-08-26T20:15:43.098Z,21.82
2022-08-26T20:18:29.530Z,21.80
2022-08-26T20:21:15.542Z,21.81
2022-08-26T20:23:42.721Z,21.79
2022-08-26T20:26:09.273Z,21.78
2022-08-26T20:28:36.216Z,21.80
2022-08-26T20:31:03.288Z,21.79
2022-08-26T20:33:29.814Z,21.79
2022-08-26T20:36:08.159Z,21.77
2022-08-26T20:38:34.618Z,21.76
2022-08-26T20:41:01.229Z,21.80
2022-08-26T20:43:27.849Z,21.79
2022-08-26T20:45:54.450Z,21.79
2022-08-26T20:48:21.185Z,21.77
2022-08-26T20:50:47.617Z,21.76
2022-08-26T20:53:14.119Z,21.77
2022-08-26T20:55:40.717Z,21.76
2022-08-26T20:58:07.443Z,21.74
2022-08-26T21:00:33.974Z,21.73
2022-08-26T21:03:00.443Z,21.72
2022-08-26T21:05:27.173Z,21.51
2022-08-26T21:07:53.793Z,21.70
2022-08-26T21:10:21.118Z,21.69
2022-08-26T21:12:49.803Z,21.53
2022-08-26T21:15:16.509Z,21.67
2022-08-26T21:17:42.959Z,21.67
2022-08-26T21:20:09.807Z,21.64
2022-08-26T21:22:36.337Z,21.66
2022-08-26T21:25:03.053Z,21.46
2022-08-26T21:27:29.524Z,21.64
2022-08-26T21:29:56.182Z,21.61
2022-08-26T21:32:22.780Z,21.60
2022-08-26T21:34:49.185Z,21.59
2022-08-26T21:37:16.812Z,21.61
2022-08-26T21:39:43.848Z,21.61
2022-08-26T21:42:10.460Z,21.57
2022-08-26T21:44:37.229Z,21.50
2022-08-26T21:47:05.001Z,21.60
2022-08-26T21:49:31.531Z,21.59
2022-08-26T21:51:58.001Z,21.59
2022-08-26T21:54:24.453Z,21.52
2022-08-26T21:56:51.234Z,21.58
2022-08-26T21:59:18.935Z,21.44
2022-08-26T22:01:45.834Z,21.58
2022-08-26T22:04:12.633Z,21.56
2022-08-26T22:06:46.215Z,21.56
2022-08-26T22:09:14.568Z,21.55
2022-08-26T22:11:41.287Z,21.53
2022-08-26T22:14:08.059Z,21.53
2022-08-26T22:16:34.709Z,21.53
2022-08-26T22:19:01.298Z,21.49
2022-08-26T22:21:28.352Z,21.49
2022-08-26T22:23:58.375Z,21.47
2022-08-26T22:26:26.217Z,21.62
2022-08-26T22:28:58.790Z,21.47
2022-08-26T22:31:28.136Z,21.42
2022-08-26T22:34:06.377Z,21.39
2022-08-26T22:36:32.875Z,21.38
2022-08-26T22:38:59.325Z,21.36
2022-08-26T22:41:26.134Z,21.33
2022-08-26T22:43:52.742Z,21.32
2022-08-26T22:46:21.518Z,21.24
2022-08-26T22:48:53.856Z,21.28
2022-08-26T22:51:21.816Z,21.27
2022-08-26T22:53:48.572Z,21.26
2022-08-26T22:56:15.641Z,21.23
2022-08-26T22:58:42.245Z,21.17
2022-08-26T23:01:08.884Z,21.20
2022-08-26T23:03:35.561Z,21.18
2022-08-26T23:06:05.992Z,21.18
2022-08-26T23:08:32.625Z,21.18
2022-08-26T23:10:59.319Z,21.18
2022-08-26T23:13:25.792Z,21.18
2022-08-26T23:16:03.434Z,21.20
2022-08-26T23:18:29.996Z,21.16
2022-08-26T23:20:56.653Z,21.20
2022-08-26T23:23:24.081Z,21.19
2022-08-26T23:25:50.587Z,21.23
2022-08-26T23:28:17.605Z,21.13
2022-08-26T23:30:44.299Z,21.03
2022-08-26T23:33:11.025Z,21.24
2022-08-26T23:35:37.526Z,21.25
2022-08-26T23:38:06.482Z,21.24
2022-08-26T23:40:37.367Z,21.22
2022-08-26T23:43:07.796Z,21.24
2022-08-26T23:45:35.119Z,21.24
2022-08-26T23:48:01.823Z,21.25
2022-08-26T23:50:49.026Z,21.26
2022-08-26T23:53:19.999Z,21.25
2022-08-26T23:55:48.322Z,21.26
2022-08-26T23:58:19.696Z,21.28
